Time;durP1;ratioP1;P1;durP2;ratioP2;P2;SDS_P1;SDS_P2;PMS_P1;PMS_P2;Temp;Humidity;BMP_temperature;BMP_pressure;BME280_temperature;BME280_humidity;BME280_pressure;Samples;Min_cycle;Max_cycle;Signal;HPM_P1;HPM_P2
2023/10/04 00:01:58;;;;;;;0.70;0.60;;;;;;;22.88;48.97;101676.84;5060533;28;20162;-84
2023/10/04 00:04:25;;;;;;;;;;;;;;;22.89;50.32;101678.63;5064114;28;20063;-84
2023/10/04 00:06:55;;;;;;;0.95;0.70;;;;;;;22.85;48.99;101680.38;5063777;28;19928;-82
2023/10/04 00:09:23;;;;;;;0.63;0.57;;;;;;;22.82;49.59;101682.19;5062551;28;20242;-81
2023/10/04 00:11:52;;;;;;;1.10;0.77;;;;;;;22.79;51.63;101683.97;5059428;28;20056;-82
2023/10/04 00:14:26;;;;;;;1.00;0.68;;;;;;;22.74;51.67;101677.81;5064311;28;20114;-83
2023/10/04 00:16:55;;;;;;;1.23;0.70;;;;;;;22.69;52.33;101681.38;5062847;28;20505;-83
2023/10/04 00:19:24;;;;;;;1.15;0.77;;;;;;;22.64;51.44;101675.25;5065173;28;20144;-82
2023/10/04 00:21:52;;;;;;;1.92;0.60;;;;;;;22.56;51.81;101673.56;5058565;28;20651;-83
2023/10/04 00:24:21;;;;;;;1.05;0.50;;;;;;;22.47;52.32;101680.59;5061014;28;20056;-84
2023/10/04 00:26:52;;;;;;;1.83;0.50;;;;;;;22.35;52.31;101685.06;5063705;28;20075;-83
2023/10/04 00:29:22;;;;;;;2.95;0.60;;;;;;;22.30;52.32;101681.56;5061166;28;20056;-84
2023/10/04 00:31:51;;;;;;;0.60;0.60;;;;;;;22.25;52.42;101678.09;5060565;28;20534;-83
2023/10/04 00:34:20;;;;;;;1.33;0.60;;;;;;;22.17;52.21;101679.81;5059236;28;20052;-82
2023/10/04 00:36:55;;;;;;;0.70;0.57;;;;;;;22.08;50.67;101669.31;5059911;28;20037;-83
2023/10/04 00:39:25;;;;;;;0.75;0.63;;;;;;;22.03;52.62;101676.38;5062171;28;20048;-82
2023/10/04 00:41:55;;;;;;;1.83;0.70;;;;;;;21.97;54.65;101679.91;5059642;28;20144;-82
2023/10/04 00:44:34;;;;;;;4.00;3.60;;;;;;;21.91;52.91;101685.19;5061669;28;20041;-80
2023/10/04 00:47:07;;;;;;;4.18;3.50;;;;;;;21.82;50.70;101678.19;5059119;28;20136;-87
2023/10/04 00:49:35;;;;;;;;;;;;;;;21.75;51.78;101677.31;5060752;28;20075;-82
2023/10/04 00:52:08;;;;;;;4.88;3.60;;;;;;;21.69;51.94;101673.81;5062688;28;20820;-83
2023/10/04 00:54:37;;;;;;;3.17;1.67;;;;;;;21.59;51.41;101666.81;5061705;28;20102;-83
2023/10/04 00:57:07;;;;;;;3.30;2.55;;;;;;;21.55;54.08;101668.56;5060944;28;20053;-80
2023/10/04 00:59:37;;;;;;;2.33;1.40;;;;;;;21.47;55.39;101671.22;5059942;28;20052;-79
2023/10/04 01:02:09;;;;;;;2.00;0.93;;;;;;;21.41;54.63;101675.63;5055198;28;20081;-79
2023/10/04 01:04:38;;;;;;;0.88;0.57;;;;;;;21.33;53.39;101678.22;5057734;28;20052;-82
2023/10/04 01:07:06;;;;;;;1.52;0.90;;;;;;;21.24;52.85;101675.59;5060470;28;20180;-84
2023/10/04 01:09:35;;;;;;;2.33;0.90;;;;;;;21.17;56.02;101681.75;5055386;28;20051;-85
2023/10/04 01:12:04;;;;;;;2.10;0.70;;;;;;;21.08;57.99;101678.22;5062321;28;20078;-81
2023/10/04 01:14:37;;;;;;;1.30;0.95;;;;;;;20.99;59.54;101687.88;5060135;28;20586;-82
2023/10/04 01:17:12;;;;;;;1.00;0.80;;;;;;;20.90;58.44;101675.56;5058225;28;20585;-80
2023/10/04 01:19:41;;;;;;;5.20;1.20;;;;;;;20.80;60.43;101679.03;5062676;28;20080;-79
2023/10/04 01:22:11;;;;;;;1.73;0.70;;;;;;;20.67;61.82;101668.50;5064066;28;20132;-86
2023/10/04 01:24:42;;;;;;;2.47;0.80;;;;;;;20.60;59.11;101679.88;5059145;28;20102;-87
2023/10/04 01:27:11;;;;;;;1.00;0.60;;;;;;;20.51;58.33;101679.81;5063254;28;20634;-86
2023/10/04 01:29:39;;;;;;;0.90;0.60;;;;;;;20.43;58.08;101687.69;5068152;28;20102;-88
2023/10/04 01:32:08;;;;;;;1.05;0.50;;;;;;;20.36;59.37;101685.91;5067376;28;20087;-87
2023/10/04 01:34:37;;;;;;;2.65;0.60;;;;;;;20.27;59.11;101680.59;5071505;28;20040;-81
2023/10/04 01:37:06;;;;;;;3.47;0.70;;;;;;;20.19;60.69;101691.09;5061109;28;20059;-86
2023/10/04 01:39:37;;;;;;;2.95;0.73;;;;;;;20.11;59.52;101684.03;5066817;28;20623;-82
2023/10/04 01:42:06;;;;;;;0.88;0.50;;;;;;;20.04;61.54;101693.63;5048367;28;20076;-81
2023/10/04 01:44:35;;;;;;;1.00;0.70;;;;;;;19.96;61.27;101695.34;5051571;28;20067;-80
2023/10/04 01:47:07;;;;;;;1.63;0.80;;;;;;;19.87;59.89;101694.41;5046994;28;20088;-85
2023/10/04 01:49:35;;;;;;;1.42;0.60;;;;;;;19.82;63.50;101700.53;5051089;28;20085;-82
2023/10/04 01:52:05;;;;;;;1.40;0.60;;;;;;;19.74;65.35;101694.34;5043272;28;20072;-83
2023/10/04 01:54:34;;;;;;;3.03;0.70;;;;;;;19.64;68.28;101701.25;5046559;28;20049;-84
2023/10/04 01:57:05;;;;;;;7.32;0.88;;;;;;;19.53;69.33;101695.03;5044255;28;20061;-84
2023/10/04 01:59:41;;;;;;;2.45;0.90;;;;;;;19.43;66.65;101708.09;5054342;28;20061;-84
2023/10/04 02:02:20;;;;;;;1.98;0.80;;;;;;;19.33;65.11;101698.34;5043284;28;20059;-84
2023/10/04 02:04:53;;;;;;;2.22;1.00;;;;;;;19.29;65.91;101706.19;5044204;28;20109;-84
2023/10/04 02:07:23;;;;;;;1.52;0.80;;;;;;;19.22;67.71;101705.28;5042389;28;20076;-85
2023/10/04 02:09:52;;;;;;;3.28;1.42;;;;;;;19.13;67.58;101716.56;5048266;28;20051;-83
2023/10/04 02:12:26;;;;;;;5.85;1.20;;;;;;;19.04;69.17;101719.97;5046795;28;20045;-84
2023/10/04 02:14:55;;;;;;;3.55;1.52;;;;;;;18.98;70.04;101730.41;5043782;28;20151;-85
2023/10/04 02:17:24;;;;;;;3.42;1.77;;;;;;;18.89;70.62;101730.31;5044418;28;20424;-88
2023/10/04 02:19:53;;;;;;;2.97;1.60;;;;;;;18.86;72.63;101727.66;5046847;28;20109;-89
2023/10/04 02:22:31;;;;;;;6.57;1.80;;;;;;;18.79;72.27;101736.31;5046884;28;20423;-85
2023/10/04 02:25:00;;;;;;;2.65;1.77;;;;;;;18.72;71.67;101739.72;5042142;28;20045;-83
2023/10/04 02:27:30;;;;;;;6.82;1.75;;;;;;;18.56;72.82;101725.53;5041685;28;20570;-84
2023/10/04 02:29:59;;;;;;;6.07;2.15;;;;;;;18.56;73.37;101744.75;5046170;28;20071;-83
2023/10/04 02:32:29;;;;;;;4.07;1.85;;;;;;;18.48;73.81;101738.53;5044893;28;20102;-84
2023/10/04 02:34:59;;;;;;;3.70;1.92;;;;;;;18.40;73.76;101742.81;5047123;28;20060;-83
2023/10/04 02:37:28;;;;;;;3.60;2.47;;;;;;;18.33;73.33;101744.47;5048565;28;20105;-84
2023/10/04 02:39:59;;;;;;;4.43;1.90;;;;;;;18.26;75.70;101744.38;5046047;28;20133;-82
2023/10/04 02:42:40;;;;;;;5.68;2.13;;;;;;;18.13;77.16;101738.94;5067362;28;20063;-84
2023/10/04 02:45:18;;;;;;;6.20;1.92;;;;;;;18.06;78.96;101749.31;5062352;28;20083;-83
2023/10/04 02:47:53;;;;;;;7.18;2.33;;;;;;;17.97;78.10;101750.06;5061607;28;20044;-83
2023/10/04 02:50:23;;;;;;;3.45;1.92;;;;;;;17.82;77.93;101750.72;5067985;28;20054;-82
2023/10/04 02:52:52;;;;;;;7.85;1.98;;;;;;;17.74;80.54;101750.53;5063229;28;20054;-81
2023/10/04 02:55:22;;;;;;;8.98;1.45;;;;;;;17.67;85.38;101756.53;5066788;28;20055;-81
2023/10/04 02:57:55;;;;;;;3.70;1.33;;;;;;;17.56;84.55;101745.00;5066367;28;20139;-81
2023/10/04 03:00:24;;;;;;;3.17;1.25;;;;;;;17.50;85.54;101763.22;5062193;28;20045;-81
2023/10/04 03:02:54;;;;;;;4.32;1.23;;;;;;;17.44;88.69;101753.53;5067740;28;20513;-83
2023/10/04 03:05:24;;;;;;;1.90;1.40;;;;;;;17.41;88.74;101757.81;5065846;28;20149;-83
2023/10/04 03:07:53;;;;;;;12.30;2.08;;;;;;;17.36;90.75;101758.66;5068308;28;20051;-82
2023/10/04 03:10:32;;;;;;;4.75;1.60;;;;;;;17.31;92.14;101760.28;5066705;28;20064;-81
2023/10/04 03:13:11;;;;;;;6.65;1.58;;;;;;;17.26;90.67;101759.31;5064335;28;20056;-81
2023/10/04 03:15:41;;;;;;;2.08;1.20;;;;;;;17.24;88.46;101755.81;5067565;28;20048;-83
2023/10/04 03:18:17;;;;;;;1.90;1.20;;;;;;;17.13;87.65;101747.78;5063130;28;20076;-82
2023/10/04 03:20:48;;;;;;;5.50;1.55;;;;;;;17.20;87.39;101767.06;5065576;28;20052;-82
2023/10/04 03:23:21;;;;;;;4.72;1.60;;;;;;;17.17;87.68;101765.25;5063980;28;20061;-82
2023/10/04 03:25:50;;;;;;;8.52;1.95;;;;;;;17.12;88.07;101768.66;5064407;28;20067;-82
2023/10/04 03:28:25;;;;;;;3.67;1.55;;;;;;;17.08;88.22;101769.44;5071424;28;20059;-82
2023/10/04 03:30:56;;;;;;;2.55;1.55;;;;;;;17.04;87.13;101776.38;5067394;28;20071;-81
2023/10/04 03:33:25;;;;;;;2.40;1.70;;;;;;;17.01;87.02;101780.66;5063488;28;20079;-86
2023/10/04 03:35:53;;;;;;;2.67;1.20;;;;;;;16.96;86.69;101783.19;5064210;28;20067;-86
2023/10/04 03:38:22;;;;;;;2.50;1.38;;;;;;;16.93;86.60;101783.13;5066374;28;20060;-82
2023/10/04 03:40:55;;;;;;;1.77;1.00;;;;;;;16.87;86.77;101783.88;5065246;28;20064;-82
2023/10/04 03:43:28;;;;;;;2.42;1.27;;;;;;;16.82;87.07;101787.25;5055601;28;20152;-81
2023/10/04 03:45:56;;;;;;;;;;;;;;;16.80;86.62;101796.78;5065141;28;20052;-81
2023/10/04 03:48:24;;;;;;;3.20;0.90;;;;;;;16.75;87.32;101799.28;5061645;28;19980;-87
2023/10/04 03:50:54;;;;;;;2.67;1.13;;;;;;;16.68;89.11;101798.28;5059848;28;21081;-85
2023/10/04 03:53:26;;;;;;;2.13;1.27;;;;;;;16.64;89.39;101800.78;5057390;28;20045;-86
2023/10/04 03:55:54;;;;;;;2.78;1.23;;;;;;;16.62;89.80;101798.13;5058513;28;20040;-85
2023/10/04 03:58:25;;;;;;;2.05;1.02;;;;;;;16.58;88.18;101795.41;5058422;28;20134;-84
2023/10/04 04:00:53;;;;;;;2.17;0.90;;;;;;;16.60;87.73;101799.81;5060312;28;20056;-84
2023/10/04 04:03:33;;;;;;;4.00;1.00;;;;;;;16.54;88.58;101804.94;5059217;28;20053;-85
2023/10/04 04:06:02;;;;;;;2.75;0.80;;;;;;;16.49;87.77;101807.44;5059960;28;20048;-85
2023/10/04 04:08:30;;;;;;;3.55;0.85;;;;;;;16.47;88.81;101814.38;5057313;28;20052;-85
2023/10/04 04:11:10;;;;;;;;;;;;;;;;;;;;;
2023/10/04 04:13:40;;;;;;;3.28;1.00;;;;;;;16.42;87.57;101817.72;5057489;28;20048;-85
2023/10/04 04:16:11;;;;;;;4.40;1.10;;;;;;;16.40;87.56;101830.75;5057343;28;20132;-85
2023/10/04 04:18:39;;;;;;;1.30;1.10;;;;;;;16.39;86.71;101826.38;5058301;28;20045;-84
2023/10/04 04:21:12;;;;;;;4.05;0.90;;;;;;;16.36;86.97;101826.31;5059353;28;20122;-85
2023/10/04 04:23:41;;;;;;;2.25;1.00;;;;;;;16.38;86.89;101835.06;5066828;28;20052;-85
2023/10/04 04:26:11;;;;;;;3.28;1.02;;;;;;;16.38;86.71;101835.06;5065633;28;20102;-86
2023/10/04 04:28:41;;;;;;;1.70;0.90;;;;;;;16.36;86.74;101836.75;5063441;28;20093;-86
2023/10/04 04:31:20;;;;;;;1.50;0.80;;;;;;;16.36;87.05;101839.38;5058579;28;20555;-84
2023/10/04 04:33:48;;;;;;;3.63;0.82;;;;;;;16.33;87.73;101841.88;5062580;28;20076;-85
2023/10/04 04:36:25;;;;;;;2.80;1.42;;;;;;;16.29;88.99;101840.06;5059273;28;20052;-81
2023/10/04 04:38:55;;;;;;;2.40;1.08;;;;;;;16.27;89.38;101842.63;5056331;28;21045;-85
2023/10/04 04:41:25;;;;;;;2.25;1.10;;;;;;;16.27;90.40;101842.63;5050931;28;20114;-85
2023/10/04 04:43:56;;;;;;;4.50;1.48;;;;;;;16.25;89.43;101841.72;5041300;28;20120;-86
2023/10/04 04:46:24;;;;;;;0.98;0.80;;;;;;;16.21;88.91;101842.47;5043622;28;20047;-86
2023/10/04 04:48:56;;;;;;;3.45;0.98;;;;;;;16.21;88.27;101846.84;5046501;28;20044;-85
2023/10/04 04:51:26;;;;;;;2.30;0.85;;;;;;;16.18;87.97;101857.22;5048261;28;20514;-82
2023/10/04 04:53:54;;;;;;;1.42;0.88;;;;;;;16.19;87.60;101854.63;5044466;28;20053;-87
2023/10/04 04:56:23;;;;;;;1.75;0.90;;;;;;;16.17;87.13;101851.13;5044899;28;20056;-84
2023/10/04 04:59:07;;;;;;;3.40;0.70;;;;;;;16.17;86.67;101852.81;5045356;28;20045;-86
2023/10/04 05:01:38;;;;;;;2.47;0.90;;;;;;;16.12;86.61;101860.53;5043304;28;20060;-86
2023/10/04 05:04:07;;;;;;;1.23;0.70;;;;;;;16.07;87.33;101860.44;5041355;28;20080;-86
2023/10/04 05:06:41;;;;;;;0.90;0.60;;;;;;;16.03;87.38;101858.59;5047404;28;20064;-87
2023/10/04 05:09:10;;;;;;;1.92;0.80;;;;;;;15.97;90.19;101878.47;5038093;28;20048;-87
2023/10/04 05:11:39;;;;;;;1.42;0.70;;;;;;;15.92;88.62;101875.72;5041586;28;20052;-88
2023/10/04 05:14:10;;;;;;;1.10;0.88;;;;;;;15.89;89.54;101873.91;5045249;28;20051;-88
2023/10/04 05:16:46;;;;;;;4.22;1.60;;;;;;;15.80;91.08;101871.06;5048703;28;20060;-88
2023/10/04 05:19:15;;;;;;;4.22;0.85;;;;;;;15.82;90.59;101884.16;5046320;28;20061;-89
2023/10/04 05:21:46;;;;;;;2.22;1.00;;;;;;;15.80;90.82;101891.06;5047581;28;20087;-88
2023/10/04 05:24:17;;;;;;;0.90;0.60;;;;;;;15.73;89.37;101889.13;5047636;28;20140;-87
2023/10/04 05:26:48;;;;;;;2.33;0.68;;;;;;;15.69;89.43;101894.25;5045830;28;20037;-87
2023/10/04 05:29:18;;;;;;;7.30;1.08;;;;;;;15.66;90.39;101891.53;5044700;28;20099;-88
2023/10/04 05:31:47;;;;;;;2.05;1.02;;;;;;;15.67;89.35;101892.44;5046375;28;20055;-87
2023/10/04 05:34:25;;;;;;;6.85;1.63;;;;;;;15.62;91.34;101886.19;5044458;28;20053;-87
2023/10/04 05:36:53;;;;;;;3.50;0.88;;;;;;;15.65;90.98;101891.50;5046493;28;20102;-87
2023/10/04 05:39:22;;;;;;;3.17;0.88;;;;;;;15.61;91.71;101890.53;5046379;28;20048;-89
2023/10/04 05:42:09;;;;;;;1.80;0.93;;;;;;;15.61;90.32;101892.25;5069504;28;20048;-88
2023/10/04 05:44:39;;;;;;;1.92;0.93;;;;;;;15.58;90.54;101895.69;5068302;28;20521;-89
2023/10/04 05:47:08;;;;;;;1.33;0.73;;;;;;;15.56;89.95;101892.16;5067498;28;20072;-89
2023/10/04 05:49:46;;;;;;;1.70;0.80;;;;;;;15.54;90.52;101901.66;5062332;28;20048;-89
2023/10/04 05:52:15;;;;;;;1.08;0.75;;;;;;;15.51;90.34;101904.19;5063647;28;20056;-88
2023/10/04 05:54:49;;;;;;;1.55;1.08;;;;;;;15.49;90.10;101908.47;5076058;28;20071;-88
2023/10/04 05:57:37;;;;;;;2.65;1.20;;;;;;;15.40;89.30;101901.28;5080797;28;20053;-88
2023/10/04 06:02:54;;;;;;;3.30;0.88;;;;;;;15.35;87.89;101909.81;5070645;28;20060;-89
2023/10/04 06:05:24;;;;;;;0.93;0.52;;;;;;;15.37;88.98;101915.94;5068644;28;20088;-89
2023/10/04 06:07:54;;;;;;;2.45;0.80;;;;;;;15.31;88.88;101908.84;5073357;28;20049;-88
2023/10/04 06:10:32;;;;;;;1.65;1.00;;;;;;;15.25;88.22;101906.03;5067617;28;20047;-88
2023/10/04 06:13:07;;;;;;;6.30;1.02;;;;;;;15.25;89.97;101917.34;5077069;28;20048;-88
2023/10/04 06:15:46;;;;;;;3.10;0.95;;;;;;;15.14;91.32;101903.16;5070634;28;20501;-88
2023/10/04 06:18:16;;;;;;;3.22;0.80;;;;;;;15.14;93.47;101913.56;5081254;28;20060;-86
2023/10/04 06:20:45;;;;;;;1.95;0.80;;;;;;;15.11;92.51;101923.88;5064841;28;20091;-88
2023/10/04 06:23:15;;;;;;;2.05;0.77;;;;;;;15.07;93.48;101911.59;5063892;28;20049;-86
2023/10/04 06:25:52;;;;;;;2.67;0.90;;;;;;;14.98;92.37;101906.13;5075001;28;20036;-85
2023/10/04 06:28:21;;;;;;;1.85;0.57;;;;;;;14.98;87.23;101906.13;5064019;28;20178;-85
2023/10/04 06:30:52;;;;;;;5.43;0.95;;;;;;;14.98;93.88;101913.94;5075062;28;20048;-87
2023/10/04 06:33:23;;;;;;;4.00;1.05;;;;;;;14.95;93.03;101916.47;5077728;28;20032;-86
2023/10/04 06:35:51;;;;;;;1.45;0.73;;;;;;;14.91;91.09;101914.59;5063850;28;20572;-87
2023/10/04 06:38:20;;;;;;;9.65;1.25;;;;;;;14.90;91.55;101928.47;5073131;28;20052;-87
2023/10/04 06:40:49;;;;;;;2.33;0.70;;;;;;;14.84;90.45;101916.13;5069235;28;20126;-88
2023/10/04 06:43:18;;;;;;;1.80;0.73;;;;;;;14.82;87.85;101916.09;5064791;28;20056;-88
2023/10/04 06:45:59;;;;;;;7.13;0.82;;;;;;;14.81;89.60;101921.25;5074174;28;20059;-87
2023/10/04 06:48:27;;;;;;;2.55;0.70;;;;;;;14.84;88.81;101922.25;5067977;28;20080;-86
2023/10/04 06:50:57;;;;;;;2.78;0.55;;;;;;;14.81;89.18;101923.84;5062141;28;20051;-87
2023/10/04 06:53:34;;;;;;;1.65;0.47;;;;;;;14.78;86.62;101922.03;5068570;28;20040;-87
2023/10/04 06:56:03;;;;;;;4.45;1.00;;;;;;;14.78;85.20;101919.44;5065177;28;20140;-86
2023/10/04 06:58:31;;;;;;;1.52;0.50;;;;;;;14.78;83.65;101927.25;5074116;28;20473;-87
2023/10/04 07:03:44;;;;;;;5.05;0.60;;;;;;;14.66;93.05;101919.06;5071710;28;20048;-87
2023/10/04 07:06:13;;;;;;;4.63;0.73;;;;;;;14.60;93.25;101918.88;5069990;28;20083;-89
2023/10/04 07:08:44;;;;;;;1.27;0.70;;;;;;;14.58;92.13;101936.16;5075098;28;20040;-87
2023/10/04 07:11:19;;;;;;;3.03;0.70;;;;;;;14.56;92.18;101938.72;5073261;28;20129;-87
2023/10/04 07:13:47;;;;;;;3.15;0.50;;;;;;;14.60;91.27;101950.13;5066368;28;20040;-88
2023/10/04 07:16:18;;;;;;;1.08;0.63;;;;;;;14.50;93.66;101935.91;5069524;28;20091;-88
2023/10/04 07:18:57;;;;;;;1.73;0.90;;;;;;;14.56;93.34;101950.84;5069057;28;20059;-88
2023/10/04 07:21:26;;;;;;;2.50;0.50;;;;;;;14.51;91.28;101941.97;5064978;28;20112;-87
2023/10/04 07:23:55;;;;;;;3.10;0.65;;;;;;;14.54;86.28;101949.88;5069428;28;20093;-88
2023/10/04 07:26:23;;;;;;;1.52;0.70;;;;;;;14.48;83.91;101950.59;5069262;28;20095;-88
2023/10/04 07:29:11;;;;;;;1.80;1.23;;;;;;;14.41;85.78;101939.09;5062500;28;20040;-88
2023/10/04 07:31:42;;;;;;;1.13;0.70;;;;;;;14.36;85.85;101938.06;5068218;28;20056;-89
2023/10/04 07:34:20;;;;;;;1.02;0.73;;;;;;;14.36;86.85;101945.88;5070179;28;20063;-88
2023/10/04 07:36:49;;;;;;;4.20;0.82;;;;;;;14.30;86.74;101944.78;5073652;28;20111;-89
2023/10/04 07:39:21;;;;;;;0.52;0.47;;;;;;;14.24;87.72;101945.44;5069943;28;20404;-88
2023/10/04 07:41:57;;;;;;;2.47;1.53;;;;;;;14.21;89.46;101940.13;5064339;28;20179;-86
2023/10/04 07:44:26;;;;;;;4.00;1.02;;;;;;;14.21;88.58;101945.34;5062865;28;20063;-87
2023/10/04 07:46:56;;;;;;;2.15;0.77;;;;;;;14.16;84.57;101937.38;5071261;28;20041;-87
2023/10/04 07:49:25;;;;;;;1.88;0.47;;;;;;;14.18;84.78;101953.06;5074995;28;20060;-89
2023/10/04 07:51:58;;;;;;;2.55;0.50;;;;;;;14.12;87.21;101945.91;5064888;28;20056;-88
2023/10/04 07:54:27;;;;;;;3.30;0.75;;;;;;;14.09;85.69;101952.72;5064225;28;20072;-89
2023/10/04 07:56:55;;;;;;;1.90;0.82;;;;;;;14.10;89.91;101949.31;5066421;28;20056;-89
2023/10/04 07:59:24;;;;;;;2.30;0.52;;;;;;;14.07;92.35;101959.63;5065830;28;20045;-89
2023/10/04 08:02:13;;;;;;;2.25;0.85;;;;;;;14.06;89.35;101961.31;5075828;28;20051;-87
2023/10/04 08:04:45;;;;;;;4.75;1.05;;;;;;;14.06;89.72;101956.09;5074321;28;20067;-89
2023/10/04 08:07:26;;;;;;;3.05;0.80;;;;;;;14.04;93.15;101956.06;5067907;28;20521;-90
2023/10/04 08:09:55;;;;;;;3.80;0.77;;;;;;;13.99;93.78;101960.22;5069594;28;20048;-89
2023/10/04 08:12:23;;;;;;;3.15;0.80;;;;;;;13.98;90.88;101963.66;5069948;28;20607;-89
2023/10/04 08:15:04;;;;;;;4.43;1.33;;;;;;;13.97;89.78;101959.31;5067215;28;20053;-88
2023/10/04 08:17:32;;;;;;;2.40;1.00;;;;;;;13.93;89.85;101960.00;5067966;28;20055;-89
2023/10/04 08:20:04;;;;;;;2.28;0.70;;;;;;;13.83;87.26;101945.81;5067804;28;20056;-88
2023/10/04 08:22:50;;;;;;;6.68;0.77;;;;;;;13.90;86.77;101959.88;5065000;28;20048;-89
2023/10/04 08:25:20;;;;;;;3.33;0.88;;;;;;;13.91;87.84;101959.06;5065749;28;20052;-87
2023/10/04 08:27:59;;;;;;;3.40;0.73;;;;;;;13.90;87.14;101965.09;5058772;28;20048;-88
2023/10/04 08:30:30;;;;;;;2.95;0.77;;;;;;;13.83;85.98;101953.63;5063299;28;20325;-87
2023/10/04 08:32:59;;;;;;;7.43;0.90;;;;;;;13.87;86.61;101964.13;5059339;28;20048;-87
2023/10/04 08:35:32;;;;;;;1.38;0.45;;;;;;;13.87;89.31;101962.41;5057677;28;20486;-86
2023/10/04 08:38:05;;;;;;;3.47;0.50;;;;;;;13.83;86.03;101971.81;5064495;28;20052;-88
2023/10/04 08:40:38;;;;;;;3.47;0.93;;;;;;;13.84;89.82;101972.69;5060352;28;20132;-89
2023/10/04 08:43:07;;;;;;;0.95;0.85;;;;;;;13.79;90.76;101971.66;5061295;28;20477;-89
2023/10/04 08:45:46;;;;;;;8.50;0.90;;;;;;;13.77;93.62;101973.31;5065935;28;20049;-88
2023/10/04 08:48:15;;;;;;;4.63;1.27;;;;;;;13.76;93.51;101969.81;5066313;28;20067;-88
2023/10/04 08:51:03;;;;;;;2.05;0.73;;;;;;;13.74;92.79;101974.09;5062827;28;20070;-87
2023/10/04 08:53:42;;;;;;;3.55;0.75;;;;;;;13.66;91.44;101967.72;5056246;28;20045;-87
2023/10/04 08:56:21;;;;;;;4.07;0.75;;;;;;;13.65;91.77;101971.13;5056716;28;20052;-85
2023/10/04 08:58:50;;;;;;;4.55;0.82;;;;;;;13.66;91.29;101979.84;5065334;28;20045;-87
2023/10/04 09:01:21;;;;;;;1.23;0.65;;;;;;;13.62;89.25;101974.50;5069520;28;20045;-88
2023/10/04 09:03:55;;;;;;;8.20;0.77;;;;;;;13.60;88.74;101983.97;5065599;28;20110;-87
2023/10/04 09:06:28;;;;;;;3.50;0.70;;;;;;;13.54;87.83;101978.56;5060773;28;20048;-87
2023/10/04 09:08:57;;;;;;;0.98;0.70;;;;;;;13.56;88.44;101989.91;5062284;28;20052;-85
2023/10/04 09:11:26;;;;;;;6.60;0.80;;;;;;;13.50;89.37;101981.00;5063729;28;20051;-88
2023/10/04 09:14:08;;;;;;;3.05;1.70;;;;;;;13.45;90.50;101990.34;5072482;28;20041;-88
2023/10/04 09:16:37;;;;;;;3.50;0.88;;;;;;;13.34;91.76;101977.81;5075195;28;20166;-89
2023/10/04 09:19:08;;;;;;;4.20;1.55;;;;;;;13.38;91.02;101987.50;5067293;28;20049;-87
2023/10/04 09:21:53;;;;;;;2.05;1.20;;;;;;;13.30;91.47;101977.63;5056355;28;20080;-87
2023/10/04 09:24:22;;;;;;;3.45;0.63;;;;;;;13.25;95.01;101976.56;5065321;28;20050;-87
2023/10/04 09:27:07;;;;;;;3.80;0.70;;;;;;;13.16;94.84;101971.88;5068682;28;20052;-87
2023/10/04 09:29:38;;;;;;;4.30;0.93;;;;;;;13.15;95.10;101971.00;5062581;28;20075;-89
2023/10/04 09:32:07;;;;;;;1.75;0.68;;;;;;;13.18;94.56;101989.31;5046615;28;20076;-86
2023/10/04 09:34:59;;;;;;;3.65;0.80;;;;;;;13.16;94.39;101980.56;5067009;28;20583;-84
2023/10/04 09:40:12;;;;;;;1.65;0.70;;;;;;;13.22;96.07;101990.31;5064007;28;20297;-88
2023/10/04 09:42:51;;;;;;;3.20;0.80;;;;;;;13.24;95.67;101990.34;5059403;28;20117;-88
2023/10/04 09:45:23;;;;;;;8.68;1.35;;;;;;;13.25;96.99;101981.75;5070892;28;20040;-87
2023/10/04 09:47:55;;;;;;;3.78;1.05;;;;;;;13.26;97.45;101980.91;5070473;28;20040;-88
2023/10/04 09:50:25;;;;;;;3.10;0.57;;;;;;;13.27;97.43;101980.09;5064110;28;20056;-89
2023/10/04 09:53:07;;;;;;;3.95;0.77;;;;;;;13.26;98.71;101967.91;5073960;28;20103;-86
2023/10/04 09:55:36;;;;;;;3.03;0.95;;;;;;;13.33;99.68;101980.34;5076124;28;20118;-87
2023/10/04 10:00:54;;;;;;;4.85;0.70;;;;;;;13.38;98.96;101978.84;5070026;28;20059;-88
2023/10/04 10:03:27;;;;;;;4.47;1.00;;;;;;;13.40;99.17;101984.97;5073151;28;20426;-87
2023/10/04 10:06:04;;;;;;;7.90;1.00;;;;;;;13.43;98.49;101982.47;5082419;28;20044;-88
2023/10/04 10:08:40;;;;;;;6.07;1.20;;;;;;;13.44;97.49;101986.84;5073777;28;20567;-88
2023/10/04 10:11:20;;;;;;;6.10;1.15;;;;;;;13.39;97.30;101973.66;5067084;28;20084;-86
2023/10/04 10:13:51;;;;;;;4.22;1.33;;;;;;;13.48;96.42;101986.13;5064234;28;20048;-85
2023/10/04 10:16:20;;;;;;;2.38;1.02;;;;;;;13.45;96.31;101980.81;5068507;28;20083;-86
2023/10/04 10:19:02;;;;;;;;;;;;;;;;;;;;;
2023/10/04 10:22:05;;;;;;;1.13;0.73;;;;;;;13.47;95.76;101978.25;5082332;28;20111;-88
2023/10/04 10:24:44;;;;;;;1.33;1.15;;;;;;;13.50;95.89;101989.69;5031164;28;20044;-89
2023/10/04 10:27:22;;;;;;;4.70;1.10;;;;;;;13.44;95.62;101984.25;5095803;28;20056;-88
2023/10/04 10:29:51;;;;;;;6.15;0.77;;;;;;;13.50;96.32;101994.00;5083358;28;20489;-89
2023/10/04 10:32:23;;;;;;;3.17;1.65;;;;;;;13.43;95.59;101984.19;5078591;28;20069;-88
2023/10/04 10:35:04;;;;;;;3.03;1.00;;;;;;;13.48;95.62;101991.31;5074564;28;20050;-88
2023/10/04 10:37:38;;;;;;;2.55;0.55;;;;;;;13.49;95.53;101987.91;5073503;28;20046;-88
2023/10/04 10:40:37;;;;;;;2.92;0.98;;;;;;;13.49;95.71;101972.31;5073141;28;20052;-88
2023/10/04 10:43:17;;;;;;;3.03;1.35;;;;;;;13.58;95.59;102001.25;5054116;28;20092;-87
2023/10/04 10:45:46;;;;;;;1.23;0.47;;;;;;;13.51;96.27;101981.03;5052275;28;20073;-87
2023/10/04 10:48:15;;;;;;;1.92;0.85;;;;;;;13.64;96.15;102002.31;5047270;28;20155;-88
2023/10/04 10:50:58;;;;;;;3.50;1.67;;;;;;;13.63;97.10;102006.63;5054201;28;20432;-88
2023/10/04 10:53:28;;;;;;;2.80;0.90;;;;;;;13.62;97.02;102000.53;5062463;28;20037;-88
2023/10/04 10:55:58;;;;;;;4.57;0.98;;;;;;;13.63;97.74;102006.63;5055648;28;20049;-87
2023/10/04 10:58:37;;;;;;;5.32;1.85;;;;;;;13.65;98.17;102009.28;5045479;28;20049;-89
2023/10/04 11:01:10;;;;;;;4.05;1.45;;;;;;;13.65;99.36;101998.88;5054979;28;20069;-89
2023/10/04 11:03:40;;;;;;;4.32;1.00;;;;;;;13.60;100.00;101996.97;5053451;28;20072;-89
2023/10/04 11:06:13;;;;;;;3.03;0.95;;;;;;;13.60;100.00;101998.69;5050525;28;20442;-88
2023/10/04 11:08:42;;;;;;;7.38;1.00;;;;;;;13.64;100.00;101991.91;5047804;28;20128;-89
2023/10/04 11:11:31;;;;;;;;;;;;;;;;;;;;;
2023/10/04 11:14:31;;;;;;;3.80;1.20;;;;;;;13.75;100.00;102012.28;5057568;28;20116;-88
2023/10/04 11:16:59;;;;;;;5.88;0.98;;;;;;;13.73;100.00;102003.53;5059191;28;20049;-88
2023/10/04 11:19:30;;;;;;;2.97;1.02;;;;;;;13.80;100.00;102015.91;5047502;28;20135;-87
2023/10/04 11:24:43;;;;;;;1.45;0.70;;;;;;;13.81;100.00;102016.78;5049941;28;20712;-88
2023/10/04 11:30:08;;;;;;;5.70;1.38;;;;;;;13.79;100.00;102010.69;5054969;28;20073;-89
2023/10/04 11:32:41;;;;;;;3.35;0.90;;;;;;;13.79;99.77;102008.97;5057490;28;20115;-88
2023/10/04 11:35:13;;;;;;;5.13;0.73;;;;;;;13.80;100.00;102007.25;5047178;28;20092;-87
2023/10/04 11:37:44;;;;;;;2.90;1.20;;;;;;;13.82;99.46;102014.25;5055480;28;20048;-87
2023/10/04 11:40:14;;;;;;;3.00;0.85;;;;;;;13.84;99.74;102016.94;5048300;28;20049;-88
2023/10/04 11:42:59;;;;;;;3.35;1.05;;;;;;;13.81;100.00;102017.72;5067070;28;20120;-89
2023/10/04 11:45:31;;;;;;;3.17;0.82;;;;;;;13.85;100.00;102023.88;5065545;28;20060;-88
2023/10/04 11:48:11;;;;;;;6.72;1.40;;;;;;;13.85;100.00;102018.69;5063955;28;20053;-88
2023/10/04 11:53:35;;;;;;;1.80;0.85;;;;;;;13.84;99.25;102011.72;5064961;28;20137;-88
2023/10/04 11:56:06;;;;;;;3.95;0.90;;;;;;;13.86;99.07;102011.75;5068342;28;20052;-88
2023/10/04 11:58:50;;;;;;;4.90;1.52;;;;;;;13.94;99.41;102028.53;5066279;28;20139;-90
2023/10/04 12:01:20;;;;;;;6.00;1.10;;;;;;;13.96;99.75;102019.97;5067377;28;20114;-89
2023/10/04 12:03:50;;;;;;;3.13;1.00;;;;;;;13.98;99.25;102020.03;5066453;28;20049;-88
2023/10/04 12:06:32;;;;;;;3.08;1.15;;;;;;;13.93;98.69;102012.06;5077939;28;20052;-88
2023/10/04 12:09:04;;;;;;;4.13;0.85;;;;;;;13.96;100.00;102022.56;5075580;28;20084;-88
2023/10/04 12:11:35;;;;;;;;;;;;;;;13.98;100.00;102031.31;5067710;28;20518;-88
2023/10/04 12:14:10;;;;;;;4.95;1.15;;;;;;;13.97;100.00;102029.56;5067229;28;19932;-88